sensor_id;sensor_type;location;lat;lon;timestamp;pressure;altitude;pressure_sealevel;temperature;humidity
55801;BME280;41730;51.960;20.158;2022-07-23T00:00:24;100149.38;;;24.21;54.25
55801;BME280;41730;51.960;20.158;2022-07-23T00:03:06;100155.46;;;24.18;54.27
55801;BME280;41730;51.960;20.158;2022-07-23T00:05:36;100151.04;;;24.18;54.65
55801;BME280;41730;51.960;20.158;2022-07-23T00:08:06;100153.53;;;24.24;54.85
55801;BME280;41730;51.960;20.158;2022-07-23T00:10:41;100158.69;;;24.25;54.97
55801;BME280;41730;51.960;20.158;2022-07-23T00:13:10;100160.70;;;24.20;55.07
55801;BME280;41730;51.960;20.158;2022-07-23T00:15:39;100164.09;;;24.21;55.02
55801;BME280;41730;51.960;20.158;2022-07-23T00:18:09;100165.70;;;24.23;54.90
55801;BME280;41730;51.960;20.158;2022-07-23T00:20:38;100164.36;;;24.30;54.55
55801;BME280;41730;51.960;20.158;2022-07-23T00:23:07;100165.51;;;24.12;54.92
55801;BME280;41730;51.960;20.158;2022-07-23T00:25:37;100165.33;;;24.10;54.93
55801;BME280;41730;51.960;20.158;2022-07-23T00:28:06;100170.14;;;24.00;55.16
55801;BME280;41730;51.960;20.158;2022-07-23T00:30:39;100171.27;;;23.91;55.51
55801;BME280;41730;51.960;20.158;2022-07-23T00:33:08;100169.84;;;24.01;55.27
55801;BME280;41730;51.960;20.158;2022-07-23T00:35:39;100169.80;;;24.24;54.56
55801;BME280;41730;51.960;20.158;2022-07-23T00:38:10;100167.83;;;24.35;54.11
55801;BME280;41730;51.960;20.158;2022-07-23T00:40:39;100171.78;;;24.27;53.92
55801;BME280;41730;51.960;20.158;2022-07-23T00:43:09;100170.83;;;24.10;54.31
55801;BME280;41730;51.960;20.158;2022-07-23T00:45:38;100174.48;;;24.19;54.05
55801;BME280;41730;51.960;20.158;2022-07-23T00:48:07;100171.13;;;24.27;53.80
55801;BME280;41730;51.960;20.158;2022-07-23T00:50:37;100174.27;;;24.15;53.92
55801;BME280;41730;51.960;20.158;2022-07-23T00:53:06;100173.17;;;24.05;54.15
55801;BME280;41730;51.960;20.158;2022-07-23T00:55:37;100173.19;;;23.88;54.57
55801;BME280;41730;51.960;20.158;2022-07-23T00:58:06;100173.34;;;23.90;54.54
55801;BME280;41730;51.960;20.158;2022-07-23T01:00:37;100171.66;;;23.93;54.30
55801;BME280;41730;51.960;20.158;2022-07-23T01:03:07;100168.82;;;23.93;54.37
55801;BME280;41730;51.960;20.158;2022-07-23T01:05:36;100169.67;;;23.94;54.53
55801;BME280;41730;51.960;20.158;2022-07-23T01:08:06;100170.49;;;23.95;54.62
55801;BME280;41730;51.960;20.158;2022-07-23T01:10:36;100170.71;;;23.94;54.55
55801;BME280;41730;51.960;20.158;2022-07-23T01:13:08;100171.21;;;23.84;54.72
55801;BME280;41730;51.960;20.158;2022-07-23T01:15:39;100174.88;;;23.95;54.39
55801;BME280;41730;51.960;20.158;2022-07-23T01:18:09;100174.46;;;23.88;54.45
55801;BME280;41730;51.960;20.158;2022-07-23T01:20:39;100173.67;;;23.82;54.61
55801;BME280;41730;51.960;20.158;2022-07-23T01:23:09;100173.63;;;23.84;54.35
55801;BME280;41730;51.960;20.158;2022-07-23T01:25:40;100174.17;;;23.81;54.55
55801;BME280;41730;51.960;20.158;2022-07-23T01:28:16;100176.22;;;23.84;54.77
55801;BME280;41730;51.960;20.158;2022-07-23T01:30:45;100171.58;;;23.93;54.55
55801;BME280;41730;51.960;20.158;2022-07-23T01:33:15;100171.15;;;23.97;54.44
55801;BME280;41730;51.960;20.158;2022-07-23T01:35:44;100171.90;;;24.04;54.22
55801;BME280;41730;51.960;20.158;2022-07-23T01:38:14;100169.89;;;23.93;54.45
55801;BME280;41730;51.960;20.158;2022-07-23T01:40:43;100166.88;;;23.93;54.34
55801;BME280;41730;51.960;20.158;2022-07-23T01:43:15;100162.58;;;23.80;54.71
55801;BME280;41730;51.960;20.158;2022-07-23T01:45:45;100160.81;;;23.74;55.00
55801;BME280;41730;51.960;20.158;2022-07-23T01:48:14;100156.64;;;23.74;54.97
55801;BME280;41730;51.960;20.158;2022-07-23T01:50:46;100167.08;;;23.76;54.90
55801;BME280;41730;51.960;20.158;2022-07-23T01:53:17;100169.40;;;23.71;54.86
55801;BME280;41730;51.960;20.158;2022-07-23T01:55:46;100168.80;;;23.59;55.14
55801;BME280;41730;51.960;20.158;2022-07-23T01:58:16;100171.48;;;23.46;55.50
55801;BME280;41730;51.960;20.158;2022-07-23T02:00:45;100171.41;;;23.46;55.44
55801;BME280;41730;51.960;20.158;2022-07-23T02:03:15;100174.84;;;23.46;55.71
55801;BME280;41730;51.960;20.158;2022-07-23T02:05:44;100166.73;;;23.48;55.93
55801;BME280;41730;51.960;20.158;2022-07-23T02:08:13;100162.76;;;23.42;56.00
55801;BME280;41730;51.960;20.158;2022-07-23T02:10:43;100158.54;;;23.42;55.90
55801;BME280;41730;51.960;20.158;2022-07-23T02:13:13;100158.35;;;23.26;56.13
55801;BME280;41730;51.960;20.158;2022-07-23T02:15:47;100155.93;;;23.20;56.31
55801;BME280;41730;51.960;20.158;2022-07-23T02:18:17;100156.23;;;23.16;56.28
55801;BME280;41730;51.960;20.158;2022-07-23T02:20:46;100153.27;;;23.12;56.38
55801;BME280;41730;51.960;20.158;2022-07-23T02:23:16;100151.27;;;23.01;56.93
55801;BME280;41730;51.960;20.158;2022-07-23T02:25:48;100150.77;;;23.01;57.09
55801;BME280;41730;51.960;20.158;2022-07-23T02:28:17;100154.23;;;22.95;57.19
55801;BME280;41730;51.960;20.158;2022-07-23T02:30:47;100154.85;;;22.95;57.14
55801;BME280;41730;51.960;20.158;2022-07-23T02:33:16;100161.04;;;22.95;57.04
55801;BME280;41730;51.960;20.158;2022-07-23T02:35:46;100153.34;;;23.01;56.78
55801;BME280;41730;51.960;20.158;2022-07-23T02:38:15;100156.77;;;23.16;56.41
55801;BME280;41730;51.960;20.158;2022-07-23T02:40:44;100156.50;;;23.09;56.65
55801;BME280;41730;51.960;20.158;2022-07-23T02:43:15;100163.02;;;23.10;56.89
55801;BME280;41730;51.960;20.158;2022-07-23T02:45:45;100163.02;;;23.06;56.90
55801;BME280;41730;51.960;20.158;2022-07-23T02:48:14;100162.36;;;22.97;57.29
55801;BME280;41730;51.960;20.158;2022-07-23T02:50:46;100166.66;;;23.05;56.87
55801;BME280;41730;51.960;20.158;2022-07-23T02:53:15;100171.48;;;22.88;57.27
55801;BME280;41730;51.960;20.158;2022-07-23T02:55:44;100169.42;;;22.93;57.17
55801;BME280;41730;51.960;20.158;2022-07-23T02:58:13;100172.68;;;22.90;57.19
55801;BME280;41730;51.960;20.158;2022-07-23T03:00:43;100174.71;;;22.72;57.65
55801;BME280;41730;51.960;20.158;2022-07-23T03:03:13;100167.59;;;22.71;57.81
55801;BME280;41730;51.960;20.158;2022-07-23T03:05:42;100172.20;;;22.71;57.73
55801;BME280;41730;51.960;20.158;2022-07-23T03:08:12;100169.56;;;22.64;58.07
55801;BME280;41730;51.960;20.158;2022-07-23T03:10:41;100171.30;;;22.64;58.06
55801;BME280;41730;51.960;20.158;2022-07-23T03:13:11;100170.38;;;22.79;57.81
55801;BME280;41730;51.960;20.158;2022-07-23T03:15:40;100170.40;;;22.92;57.38
55801;BME280;41730;51.960;20.158;2022-07-23T03:18:09;100170.48;;;22.90;57.59
55801;BME280;41730;51.960;20.158;2022-07-23T03:20:39;100167.85;;;22.94;57.71
55801;BME280;41730;51.960;20.158;2022-07-23T03:23:08;100175.23;;;22.96;57.75
55801;BME280;41730;51.960;20.158;2022-07-23T03:25:38;100168.96;;;23.03;57.92
55801;BME280;41730;51.960;20.158;2022-07-23T03:28:07;100171.02;;;23.23;57.82
55801;BME280;41730;51.960;20.158;2022-07-23T03:57:47;100165.14;;;27.31;51.00
55801;BME280;41730;51.960;20.158;2022-07-23T04:00:19;100162.95;;;27.54;50.17
55801;BME280;41730;51.960;20.158;2022-07-23T04:02:54;100153.95;;;27.71;49.90
55801;BME280;41730;51.960;20.158;2022-07-23T04:05:24;100148.64;;;27.90;49.32
55801;BME280;41730;51.960;20.158;2022-07-23T04:08:01;100153.34;;;27.92;49.41
55801;BME280;41730;51.960;20.158;2022-07-23T04:10:30;100156.80;;;28.11;49.10
55801;BME280;41730;51.960;20.158;2022-07-23T04:12:59;100158.64;;;28.40;48.16
55801;BME280;41730;51.960;20.158;2022-07-23T04:15:29;100155.83;;;28.55;47.84
55801;BME280;41730;51.960;20.158;2022-07-23T04:17:58;100151.19;;;28.47;47.85
55801;BME280;41730;51.960;20.158;2022-07-23T04:20:28;100157.85;;;28.60;47.88
55801;BME280;41730;51.960;20.158;2022-07-23T04:23:15;100158.02;;;28.94;47.10
55801;BME280;41730;51.960;20.158;2022-07-23T04:25:48;100152.92;;;29.30;46.37
55801;BME280;41730;51.960;20.158;2022-07-23T04:28:17;100156.27;;;29.52;45.84
55801;BME280;41730;51.960;20.158;2022-07-23T04:30:47;100156.52;;;29.55;45.70
55801;BME280;41730;51.960;20.158;2022-07-23T04:36:00;100160.17;;;29.89;45.11
55801;BME280;41730;51.960;20.158;2022-07-23T04:38:29;100157.27;;;29.98;44.75
55801;BME280;41730;51.960;20.158;2022-07-23T04:40:59;100159.78;;;30.12;44.26
55801;BME280;41730;51.960;20.158;2022-07-23T04:43:29;100155.95;;;30.31;43.92
55801;BME280;41730;51.960;20.158;2022-07-23T04:45:58;100156.66;;;30.44;43.54
55801;BME280;41730;51.960;20.158;2022-07-23T04:48:28;100155.02;;;30.59;43.17
55801;BME280;41730;51.960;20.158;2022-07-23T04:50:58;100152.44;;;30.78;42.81
55801;BME280;41730;51.960;20.158;2022-07-23T04:53:27;100149.58;;;30.93;42.44
55801;BME280;41730;51.960;20.158;2022-07-23T04:55:57;100147.09;;;30.93;42.33
55801;BME280;41730;51.960;20.158;2022-07-23T04:58:26;100142.55;;;30.90;42.16
55801;BME280;41730;51.960;20.158;2022-07-23T05:00:55;100143.15;;;30.84;42.03
55801;BME280;41730;51.960;20.158;2022-07-23T05:03:26;100144.52;;;30.68;42.16
55801;BME280;41730;51.960;20.158;2022-07-23T05:06:00;100146.04;;;30.68;42.01
55801;BME280;41730;51.960;20.158;2022-07-23T05:08:33;100147.54;;;30.66;41.94
55801;BME280;41730;51.960;20.158;2022-07-23T05:11:03;100148.48;;;30.61;41.99
55801;BME280;41730;51.960;20.158;2022-07-23T05:13:36;100150.23;;;30.64;41.83
55801;BME280;41730;51.960;20.158;2022-07-23T05:16:06;100150.39;;;30.62;41.66
55801;BME280;41730;51.960;20.158;2022-07-23T05:18:36;100154.66;;;30.54;41.71
55801;BME280;41730;51.960;20.158;2022-07-23T05:21:06;100149.98;;;30.42;41.92
55801;BME280;41730;51.960;20.158;2022-07-23T05:23:37;100146.20;;;30.37;42.04
55801;BME280;41730;51.960;20.158;2022-07-23T05:26:06;100145.68;;;30.42;42.03
55801;BME280;41730;51.960;20.158;2022-07-23T05:28:36;100142.44;;;30.51;41.82
55801;BME280;41730;51.960;20.158;2022-07-23T05:31:06;100143.74;;;30.59;41.67
55801;BME280;41730;51.960;20.158;2022-07-23T05:33:36;100147.21;;;30.75;41.36
55801;BME280;41730;51.960;20.158;2022-07-23T05:36:07;100146.00;;;30.81;41.23
55801;BME280;41730;51.960;20.158;2022-07-23T05:38:36;100140.86;;;30.82;41.38
55801;BME280;41730;51.960;20.158;2022-07-23T05:41:06;100145.09;;;30.89;41.38
55801;BME280;41730;51.960;20.158;2022-07-23T05:43:35;100148.15;;;30.93;41.39
55801;BME280;41730;51.960;20.158;2022-07-23T05:46:05;100147.89;;;31.05;41.00
55801;BME280;41730;51.960;20.158;2022-07-23T05:48:34;100144.54;;;31.09;40.89
55801;BME280;41730;51.960;20.158;2022-07-23T05:51:04;100147.73;;;31.16;40.83
55801;BME280;41730;51.960;20.158;2022-07-23T05:53:35;100148.23;;;31.20;40.67
55801;BME280;41730;51.960;20.158;2022-07-23T05:56:05;100147.06;;;31.40;40.44
55801;BME280;41730;51.960;20.158;2022-07-23T05:58:34;100143.96;;;31.46;40.33
55801;BME280;41730;51.960;20.158;2022-07-23T06:01:04;100143.86;;;31.50;40.66
55801;BME280;41730;51.960;20.158;2022-07-23T06:03:33;100144.27;;;31.64;40.36
55801;BME280;41730;51.960;20.158;2022-07-23T06:06:06;100144.52;;;31.74;40.03
55801;BME280;41730;51.960;20.158;2022-07-23T06:08:39;100143.44;;;31.79;40.04
55801;BME280;41730;51.960;20.158;2022-07-23T06:11:09;100143.09;;;31.72;40.20
55801;BME280;41730;51.960;20.158;2022-07-23T06:13:39;100140.14;;;31.62;40.18
55801;BME280;41730;51.960;20.158;2022-07-23T06:16:09;100135.77;;;31.52;40.15
55801;BME280;41730;51.960;20.158;2022-07-23T06:18:45;100132.55;;;31.51;40.24
55801;BME280;41730;51.960;20.158;2022-07-23T06:21:15;100137.14;;;31.59;40.27
55801;BME280;41730;51.960;20.158;2022-07-23T06:24:06;100134.36;;;31.59;40.58
55801;BME280;41730;51.960;20.158;2022-07-23T06:26:38;100134.35;;;31.77;40.17
55801;BME280;41730;51.960;20.158;2022-07-23T06:29:07;100131.29;;;31.95;39.96
55801;BME280;41730;51.960;20.158;2022-07-23T06:31:37;100124.61;;;31.96;39.83
55801;BME280;41730;51.960;20.158;2022-07-23T06:34:10;100131.32;;;31.93;39.86
55801;BME280;41730;51.960;20.158;2022-07-23T06:36:44;100126.00;;;31.92;39.26
55801;BME280;41730;51.960;20.158;2022-07-23T06:39:24;100127.63;;;31.89;39.27
55801;BME280;41730;51.960;20.158;2022-07-23T06:41:58;100129.46;;;31.82;38.92
55801;BME280;41730;51.960;20.158;2022-07-23T06:44:36;100126.66;;;31.96;39.23
55801;BME280;41730;51.960;20.158;2022-07-23T06:47:06;100115.75;;;32.04;38.54
55801;BME280;41730;51.960;20.158;2022-07-23T06:49:39;100115.81;;;32.04;38.69
55801;BME280;41730;51.960;20.158;2022-07-23T06:52:19;100113.91;;;32.09;38.37
55801;BME280;41730;51.960;20.158;2022-07-23T06:54:49;100107.48;;;32.12;38.26
55801;BME280;41730;51.960;20.158;2022-07-23T06:57:21;100102.80;;;32.01;38.19
55801;BME280;41730;51.960;20.158;2022-07-23T06:59:55;100101.06;;;32.10;38.12
55801;BME280;41730;51.960;20.158;2022-07-23T07:02:30;100102.96;;;32.19;37.96
55801;BME280;41730;51.960;20.158;2022-07-23T07:05:03;100102.78;;;32.30;37.78
55801;BME280;41730;51.960;20.158;2022-07-23T07:07:41;100099.73;;;32.48;37.79
55801;BME280;41730;51.960;20.158;2022-07-23T07:10:11;100099.88;;;32.63;37.36
55801;BME280;41730;51.960;20.158;2022-07-23T07:12:43;100100.79;;;32.73;36.88
55801;BME280;41730;51.960;20.158;2022-07-23T07:15:13;100100.02;;;32.73;36.54
55801;BME280;41730;51.960;20.158;2022-07-23T07:17:42;100100.93;;;32.74;36.03
55801;BME280;41730;51.960;20.158;2022-07-23T07:20:12;100101.34;;;32.83;36.11
55801;BME280;41730;51.960;20.158;2022-07-23T07:22:41;100105.89;;;32.76;36.16
55801;BME280;41730;51.960;20.158;2022-07-23T07:25:29;100103.52;;;32.66;35.92
55801;BME280;41730;51.960;20.158;2022-07-23T07:27:59;100112.48;;;32.77;35.73
55801;BME280;41730;51.960;20.158;2022-07-23T07:30:35;100106.92;;;32.88;35.66
55801;BME280;41730;51.960;20.158;2022-07-23T07:33:04;100112.94;;;33.05;35.71
55801;BME280;41730;51.960;20.158;2022-07-23T07:35:33;100106.23;;;33.07;35.55
55801;BME280;41730;51.960;20.158;2022-07-23T07:38:03;100109.07;;;33.18;35.48
55801;BME280;41730;51.960;20.158;2022-07-23T07:40:32;100111.24;;;33.21;35.47
55801;BME280;41730;51.960;20.158;2022-07-23T07:43:03;100109.60;;;33.02;35.92
55801;BME280;41730;51.960;20.158;2022-07-23T07:45:32;100106.76;;;33.12;35.98
55801;BME280;41730;51.960;20.158;2022-07-23T07:51:09;100101.23;;;33.06;35.89
55801;BME280;41730;51.960;20.158;2022-07-23T07:53:39;100104.23;;;32.95;35.86
55801;BME280;41730;51.960;20.158;2022-07-23T07:56:11;100101.55;;;32.83;36.07
55801;BME280;41730;51.960;20.158;2022-07-23T07:58:48;100101.37;;;32.89;35.92
55801;BME280;41730;51.960;20.158;2022-07-23T08:01:40;100108.12;;;33.10;35.53
55801;BME280;41730;51.960;20.158;2022-07-23T08:04:26;100105.14;;;33.31;35.25
55801;BME280;41730;51.960;20.158;2022-07-23T08:06:55;100105.67;;;33.53;34.99
55801;BME280;41730;51.960;20.158;2022-07-23T08:09:25;100109.12;;;33.64;34.93
55801;BME280;41730;51.960;20.158;2022-07-23T08:11:54;100112.81;;;33.74;34.78
55801;BME280;41730;51.960;20.158;2022-07-23T08:14:24;100112.64;;;33.83;34.57
55801;BME280;41730;51.960;20.158;2022-07-23T08:16:54;100113.73;;;33.90;34.50
55801;BME280;41730;51.960;20.158;2022-07-23T08:19:42;100118.27;;;33.80;34.60
55801;BME280;41730;51.960;20.158;2022-07-23T08:22:11;100123.08;;;33.72;34.43
55801;BME280;41730;51.960;20.158;2022-07-23T08:24:46;100120.55;;;33.76;34.85
55801;BME280;41730;51.960;20.158;2022-07-23T08:27:46;100118.55;;;33.86;34.58
55801;BME280;41730;51.960;20.158;2022-07-23T08:30:22;100120.10;;;34.00;34.33
55801;BME280;41730;51.960;20.158;2022-07-23T08:32:55;100116.83;;;33.92;34.39
55801;BME280;41730;51.960;20.158;2022-07-23T08:35:59;100114.77;;;33.81;34.36
55801;BME280;41730;51.960;20.158;2022-07-23T08:38:32;100109.35;;;33.70;34.70
55801;BME280;41730;51.960;20.158;2022-07-23T08:41:02;100110.94;;;33.78;34.54
55801;BME280;41730;51.960;20.158;2022-07-23T08:43:35;100109.25;;;33.77;34.65
55801;BME280;41730;51.960;20.158;2022-07-23T08:46:07;100114.41;;;33.87;34.85
55801;BME280;41730;51.960;20.158;2022-07-23T08:48:44;100111.49;;;33.92;34.84
55801;BME280;41730;51.960;20.158;2022-07-23T08:51:27;100108.40;;;33.89;34.63
55801;BME280;41730;51.960;20.158;2022-07-23T08:53:58;100107.83;;;33.99;34.15
55801;BME280;41730;51.960;20.158;2022-07-23T08:56:29;100109.45;;;33.93;33.90
55801;BME280;41730;51.960;20.158;2022-07-23T08:59:00;100104.67;;;33.83;34.16
55801;BME280;41730;51.960;20.158;2022-07-23T09:01:29;100097.56;;;33.78;34.21
55801;BME280;41730;51.960;20.158;2022-07-23T09:04:09;100093.98;;;33.89;33.79
55801;BME280;41730;51.960;20.158;2022-07-23T09:06:46;100083.06;;;34.07;33.51
55801;BME280;41730;51.960;20.158;2022-07-23T09:09:23;100086.50;;;34.25;33.06
55801;BME280;41730;51.960;20.158;2022-07-23T09:12:05;100087.91;;;34.37;32.80
55801;BME280;41730;51.960;20.158;2022-07-23T09:14:45;100080.23;;;34.52;32.62
55801;BME280;41730;51.960;20.158;2022-07-23T09:17:23;100080.42;;;34.71;32.24
55801;BME280;41730;51.960;20.158;2022-07-23T09:20:09;100079.01;;;34.89;32.06
55801;BME280;41730;51.960;20.158;2022-07-23T09:22:39;100079.36;;;35.09;31.48
55801;BME280;41730;51.960;20.158;2022-07-23T09:25:18;100071.21;;;35.05;31.19
55801;BME280;41730;51.960;20.158;2022-07-23T09:27:56;100073.71;;;34.93;31.14
55801;BME280;41730;51.960;20.158;2022-07-23T09:30:30;100073.48;;;34.92;31.35
55801;BME280;41730;51.960;20.158;2022-07-23T09:33:08;100063.36;;;35.05;30.93
55801;BME280;41730;51.960;20.158;2022-07-23T09:35:50;100064.26;;;35.16;30.57
55801;BME280;41730;51.960;20.158;2022-07-23T09:38:23;100070.20;;;35.13;30.61
55801;BME280;41730;51.960;20.158;2022-07-23T09:41:08;100062.30;;;34.88;30.75
55801;BME280;41730;51.960;20.158;2022-07-23T09:43:45;100058.09;;;34.84;30.66
55801;BME280;41730;51.960;20.158;2022-07-23T09:46:25;100052.73;;;34.88;30.36
55801;BME280;41730;51.960;20.158;2022-07-23T09:48:55;100054.65;;;34.92;30.31
55801;BME280;41730;51.960;20.158;2022-07-23T09:51:25;100051.04;;;34.88;30.53
55801;BME280;41730;51.960;20.158;2022-07-23T09:53:59;100047.00;;;34.96;30.62
55801;BME280;41730;51.960;20.158;2022-07-23T09:56:29;100043.72;;;35.00;30.28
55801;BME280;41730;51.960;20.158;2022-07-23T09:59:00;100044.84;;;35.12;30.14
55801;BME280;41730;51.960;20.158;2022-07-23T10:01:34;100038.45;;;35.13;30.05
55801;BME280;41730;51.960;20.158;2022-07-23T10:04:05;100043.45;;;35.10;30.04
55801;BME280;41730;51.960;20.158;2022-07-23T10:06:36;100041.61;;;35.03;30.20
55801;BME280;41730;51.960;20.158;2022-07-23T10:09:08;100041.52;;;34.99;30.25
55801;BME280;41730;51.960;20.158;2022-07-23T10:11:38;100043.38;;;34.93;30.31
55801;BME280;41730;51.960;20.158;2022-07-23T10:14:08;100041.91;;;34.85;30.44
55801;BME280;41730;51.960;20.158;2022-07-23T10:16:38;100032.15;;;34.95;30.50
55801;BME280;41730;51.960;20.158;2022-07-23T10:19:08;100032.79;;;34.97;30.59
55801;BME280;41730;51.960;20.158;2022-07-23T10:21:41;100030.74;;;35.04;30.69
55801;BME280;41730;51.960;20.158;2022-07-23T10:24:21;100025.56;;;35.19;30.35
55801;BME280;41730;51.960;20.158;2022-07-23T10:27:05;100021.91;;;35.11;30.66
55801;BME280;41730;51.960;20.158;2022-07-23T10:29:47;100020.58;;;35.16;30.46
55801;BME280;41730;51.960;20.158;2022-07-23T10:32:28;100020.11;;;35.01;30.26
55801;BME280;41730;51.960;20.158;2022-07-23T10:35:13;100018.88;;;34.83;30.19
55801;BME280;41730;51.960;20.158;2022-07-23T10:37:51;100022.20;;;34.65;30.42
55801;BME280;41730;51.960;20.158;2022-07-23T10:40:23;100022.21;;;34.59;30.53
55801;BME280;41730;51.960;20.158;2022-07-23T10:42:52;100023.11;;;34.67;30.63
55801;BME280;41730;51.960;20.158;2022-07-23T10:45:26;100017.63;;;34.60;30.57
55801;BME280;41730;51.960;20.158;2022-07-23T10:48:11;100013.77;;;34.43;31.01
55801;BME280;41730;51.960;20.158;2022-07-23T10:50:42;100010.10;;;34.59;30.94
55801;BME280;41730;51.960;20.158;2022-07-23T10:53:15;100009.50;;;34.57;30.93
55801;BME280;41730;51.960;20.158;2022-07-23T10:55:52;100009.83;;;34.49;31.24
55801;BME280;41730;51.960;20.158;2022-07-23T11:01:32;100010.65;;;34.58;31.35
55801;BME280;41730;51.960;20.158;2022-07-23T11:04:02;100009.55;;;34.49;31.43
55801;BME280;41730;51.960;20.158;2022-07-23T11:07:09;100007.41;;;34.40;31.51
55801;BME280;41730;51.960;20.158;2022-07-23T11:09:42;100002.05;;;34.46;31.47
55801;BME280;41730;51.960;20.158;2022-07-23T11:12:37;100000.14;;;34.65;31.20
55801;BME280;41730;51.960;20.158;2022-07-23T11:15:11;99993.67;;;34.76;31.05
55801;BME280;41730;51.960;20.158;2022-07-23T11:17:59;99995.66;;;34.94;30.56
55801;BME280;41730;51.960;20.158;2022-07-23T11:20:29;99988.89;;;34.94;29.94
55801;BME280;41730;51.960;20.158;2022-07-23T11:22:59;99982.14;;;34.88;29.82
55801;BME280;41730;51.960;20.158;2022-07-23T11:25:35;99982.52;;;34.78;29.98
55801;BME280;41730;51.960;20.158;2022-07-23T11:28:12;99980.98;;;34.50;30.26
55801;BME280;41730;51.960;20.158;2022-07-23T11:31:03;99979.31;;;34.33;30.26
55801;BME280;41730;51.960;20.158;2022-07-23T11:37:45;99970.83;;;34.55;30.52
55801;BME280;41730;51.960;20.158;2022-07-23T11:47:09;99949.18;;;34.85;29.52
55801;BME280;41730;51.960;20.158;2022-07-23T11:56:24;99943.46;;;34.84;29.82
55801;BME280;41730;51.960;20.158;2022-07-23T11:58:57;99937.48;;;34.90;30.15
55801;BME280;41730;51.960;20.158;2022-07-23T12:01:28;99930.45;;;35.07;30.16
55801;BME280;41730;51.960;20.158;2022-07-23T12:03:57;99923.31;;;35.21;30.04
55801;BME280;41730;51.960;20.158;2022-07-23T12:06:27;99920.91;;;35.18;29.95
55801;BME280;41730;51.960;20.158;2022-07-23T12:08:57;99916.15;;;35.21;29.88
55801;BME280;41730;51.960;20.158;2022-07-23T12:11:26;99915.80;;;35.26;29.65
55801;BME280;41730;51.960;20.158;2022-07-23T12:13:57;99907.48;;;35.22;29.12
55801;BME280;41730;51.960;20.158;2022-07-23T12:16:30;99901.06;;;35.15;29.09
55801;BME280;41730;51.960;20.158;2022-07-23T12:19:06;99898.38;;;34.99;28.93
55801;BME280;41730;51.960;20.158;2022-07-23T12:21:36;99889.81;;;34.88;29.15
55801;BME280;41730;51.960;20.158;2022-07-23T12:24:09;99894.16;;;34.78;29.38
55801;BME280;41730;51.960;20.158;2022-07-23T12:26:39;99889.96;;;34.67;29.92
55801;BME280;41730;51.960;20.158;2022-07-23T12:29:12;99886.69;;;34.66;30.17
55801;BME280;41730;51.960;20.158;2022-07-23T12:31:42;99880.34;;;34.67;30.36
55801;BME280;41730;51.960;20.158;2022-07-23T12:34:15;99869.45;;;34.61;30.36
55801;BME280;41730;51.960;20.158;2022-07-23T12:36:45;99871.34;;;34.53;30.57
55801;BME280;41730;51.960;20.158;2022-07-23T12:39:30;99868.64;;;34.46;30.48
55801;BME280;41730;51.960;20.158;2022-07-23T12:42:00;99873.58;;;34.46;30.55
55801;BME280;41730;51.960;20.158;2022-07-23T12:44:29;99872.81;;;34.25;30.78
55801;BME280;41730;51.960;20.158;2022-07-23T12:47:07;99876.27;;;34.14;31.02
55801;BME280;41730;51.960;20.158;2022-07-23T12:49:37;99870.24;;;34.20;30.90
55801;BME280;41730;51.960;20.158;2022-07-23T12:52:17;99870.98;;;34.34;30.55
55801;BME280;41730;51.960;20.158;2022-07-23T12:54:47;99875.38;;;34.44;30.56
55801;BME280;41730;51.960;20.158;2022-07-23T12:57:17;99868.08;;;34.44;30.44
55801;BME280;41730;51.960;20.158;2022-07-23T12:59:47;99865.96;;;34.46;30.49
55801;BME280;41730;51.960;20.158;2022-07-23T13:02:19;99858.62;;;34.33;30.58
55801;BME280;41730;51.960;20.158;2022-07-23T13:04:49;99860.13;;;34.26;30.87
55801;BME280;41730;51.960;20.158;2022-07-23T13:07:18;99857.00;;;34.24;30.81
55801;BME280;41730;51.960;20.158;2022-07-23T13:09:50;99854.89;;;34.18;30.87
55801;BME280;41730;51.960;20.158;2022-07-23T13:12:19;99843.59;;;34.17;30.72
55801;BME280;41730;51.960;20.158;2022-07-23T13:14:51;99851.77;;;34.24;31.00
55801;BME280;41730;51.960;20.158;2022-07-23T13:17:21;99848.72;;;34.10;31.37
55801;BME280;41730;51.960;20.158;2022-07-23T13:19:53;99848.19;;;33.92;31.91
55801;BME280;41730;51.960;20.158;2022-07-23T13:22:24;99848.40;;;33.50;32.84
55801;BME280;41730;51.960;20.158;2022-07-23T13:24:54;99850.79;;;33.10;33.36
55801;BME280;41730;51.960;20.158;2022-07-23T13:27:23;99857.46;;;32.89;33.86
55801;BME280;41730;51.960;20.158;2022-07-23T13:29:53;99861.28;;;32.72;34.27
55801;BME280;41730;51.960;20.158;2022-07-23T13:32:22;99862.83;;;32.79;34.42
55801;BME280;41730;51.960;20.158;2022-07-23T13:34:52;99872.39;;;32.96;34.24
55801;BME280;41730;51.960;20.158;2022-07-23T13:37:25;99932.52;;;32.79;34.15
55801;BME280;41730;51.960;20.158;2022-07-23T13:39:54;99979.61;;;32.82;34.32
55801;BME280;41730;51.960;20.158;2022-07-23T13:42:24;99999.95;;;32.48;35.40
55801;BME280;41730;51.960;20.158;2022-07-23T13:44:53;100023.59;;;31.84;36.34
55801;BME280;41730;51.960;20.158;2022-07-23T13:47:23;100040.08;;;31.19;39.76
55801;BME280;41730;51.960;20.158;2022-07-23T13:49:52;100049.44;;;30.23;46.66
55801;BME280;41730;51.960;20.158;2022-07-23T13:52:22;100079.55;;;29.10;49.46
55801;BME280;41730;51.960;20.158;2022-07-23T13:54:52;100087.13;;;28.15;51.77
55801;BME280;41730;51.960;20.158;2022-07-23T13:57:21;100106.94;;;27.18;53.60
55801;BME280;41730;51.960;20.158;2022-07-23T13:59:51;100112.36;;;26.47;57.90